createdAt,value
2022-09-18T00:00:13.428Z,72.50
2022-09-18T00:02:39.949Z,72.49
2022-09-18T00:05:06.909Z,72.33
2022-09-18T00:07:33.353Z,72.00
2022-09-18T00:09:59.880Z,72.05
2022-09-18T00:12:29.089Z,72.14
2022-09-18T00:14:55.622Z,72.16
2022-09-18T00:17:22.271Z,72.30
2022-09-18T00:19:49.133Z,72.49
2022-09-18T00:22:15.645Z,71.82
2022-09-18T00:24:42.199Z,72.13
2022-09-18T00:27:08.706Z,71.64
2022-09-18T00:29:35.171Z,71.85
2022-09-18T00:32:01.990Z,71.42
2022-09-18T00:34:28.576Z,71.88
2022-09-18T00:36:55.076Z,71.45
2022-09-18T00:39:21.580Z,71.55
2022-09-18T00:41:48.162Z,72.02
2022-09-18T00:44:40.859Z,71.89
2022-09-18T00:47:10.309Z,72.12
2022-09-18T00:49:44.529Z,71.78
2022-09-18T00:52:14.061Z,72.00
2022-09-18T00:54:44.838Z,71.95
2022-09-18T00:57:27.429Z,71.82
2022-09-18T00:59:54.881Z,72.35
2022-09-18T01:02:21.828Z,72.49
2022-09-18T01:04:49.803Z,72.08
2022-09-18T01:07:55.683Z,72.18
2022-09-18T01:10:25.265Z,71.92
2022-09-18T01:12:56.841Z,72.18
2022-09-18T01:15:42.097Z,72.27
2022-09-18T01:18:24.378Z,72.27
2022-09-18T01:21:06.069Z,72.17
2022-09-18T01:23:42.225Z,72.09
2022-09-18T01:26:24.249Z,72.51
2022-09-18T01:28:56.268Z,72.38
2022-09-18T01:31:29.925Z,72.36
2022-09-18T01:34:23.528Z,72.59
2022-09-18T01:36:55.316Z,72.34
2022-09-18T01:39:33.788Z,72.46
2022-09-18T01:42:03.301Z,72.45
2022-09-18T01:44:32.220Z,72.86
2022-09-18T01:47:05.349Z,73.04
2022-09-18T01:49:39.940Z,72.53
2022-09-18T01:52:12.015Z,72.85
2022-09-18T01:54:44.778Z,72.66
2022-09-18T01:57:25.688Z,72.41
2022-09-18T02:00:02.852Z,72.83
2022-09-18T02:02:58.357Z,72.52
2022-09-18T02:05:32.081Z,72.73
2022-09-18T02:08:16.924Z,72.69
2022-09-18T02:10:51.193Z,72.32
2022-09-18T02:13:24.808Z,72.71
2022-09-18T02:15:56.422Z,72.53
2022-09-18T02:18:30.282Z,72.66
2022-09-18T02:20:58.774Z,72.75
2022-09-18T02:23:26.264Z,72.41
2022-09-18T02:26:04.564Z,72.55
2022-09-18T02:28:32.575Z,72.47
2022-09-18T02:31:00.312Z,72.59
2022-09-18T02:33:28.685Z,72.79
2022-09-18T02:36:19.983Z,72.52
2022-09-18T02:38:57.345Z,72.64
2022-09-18T02:41:26.806Z,72.53
2022-09-18T02:44:14.153Z,72.62
2022-09-18T02:46:58.053Z,72.80
2022-09-18T02:49:44.565Z,72.59
2022-09-18T02:52:19.392Z,72.46
2022-09-18T02:55:02.143Z,72.28
2022-09-18T02:57:36.713Z,72.26
2022-09-18T03:00:08.321Z,72.58
2022-09-18T03:02:37.599Z,72.30
2022-09-18T03:05:05.192Z,72.52
2022-09-18T03:07:40.061Z,72.25
2022-09-18T03:10:07.277Z,72.30
2022-09-18T03:12:34.780Z,72.13
2022-09-18T03:15:02.666Z,72.24
2022-09-18T03:17:29.181Z,72.51
2022-09-18T03:19:55.817Z,72.57
2022-09-18T03:22:22.385Z,72.52
2022-09-18T03:24:49.190Z,72.74
2022-09-18T03:27:18.046Z,72.57
2022-09-18T03:29:47.917Z,72.41
2022-09-18T03:32:16.699Z,72.39
2022-09-18T03:34:48.942Z,72.26
2022-09-18T03:37:16.309Z,72.37
2022-09-18T03:39:44.356Z,72.26
2022-09-18T03:42:13.323Z,72.00
2022-09-18T03:44:40.048Z,72.20
2022-09-18T03:47:16.226Z,72.00
2022-09-18T03:49:42.695Z,72.03
2022-09-18T03:52:09.201Z,71.83
2022-09-18T03:54:43.647Z,72.15
2022-09-18T03:57:17.385Z,72.43
2022-09-18T04:03:01.570Z,71.79
2022-09-18T04:05:31.399Z,72.09
2022-09-18T04:08:17.477Z,71.98
2022-09-18T04:11:19.177Z,72.18
2022-09-18T04:13:45.745Z,72.00
2022-09-18T04:16:13.512Z,71.72
2022-09-18T04:18:40.291Z,72.21
2022-09-18T04:21:08.192Z,72.19
2022-09-18T04:23:34.816Z,71.64
2022-09-18T04:26:08.797Z,71.68
2022-09-18T04:28:39.155Z,71.98
2022-09-18T04:31:06.937Z,71.91
2022-09-18T04:33:33.500Z,71.97
2022-09-18T04:35:59.944Z,71.83
2022-09-18T04:38:27.948Z,71.99
2022-09-18T04:41:00.202Z,71.79
2022-09-18T04:43:28.423Z,71.96
2022-09-18T04:45:55.265Z,71.85
2022-09-18T04:48:22.709Z,72.06
2022-09-18T04:50:49.669Z,71.98
2022-09-18T04:53:18.193Z,71.90
2022-09-18T04:55:47.551Z,71.93
2022-09-18T04:58:17.112Z,71.70
2022-09-18T05:00:48.188Z,71.82
2022-09-18T05:03:19.340Z,71.43
2022-09-18T05:05:48.256Z,71.86
2022-09-18T05:08:16.668Z,71.62
2022-09-18T05:10:43.864Z,71.86
2022-09-18T05:13:11.447Z,71.48
2022-09-18T05:15:43.780Z,71.50
2022-09-18T05:18:12.140Z,71.75
2022-09-18T05:20:39.450Z,71.87
2022-09-18T05:23:08.262Z,71.36
2022-09-18T05:25:36.268Z,71.16
2022-09-18T05:28:03.567Z,71.05
2022-09-18T05:30:43.547Z,71.21
2022-09-18T05:33:11.494Z,71.17
2022-09-18T05:35:39.966Z,71.27
2022-09-18T05:38:06.951Z,71.04
2022-09-18T05:40:37.132Z,71.05
2022-09-18T05:43:04.678Z,70.89
2022-09-18T05:45:33.422Z,70.69
2022-09-18T05:48:05.613Z,70.91
2022-09-18T05:50:34.349Z,71.00
2022-09-18T05:53:08.588Z,71.07
2022-09-18T05:55:45.066Z,71.05
2022-09-18T05:58:14.154Z,70.76
2022-09-18T06:00:41.265Z,70.63
2022-09-18T06:03:16.856Z,70.55
2022-09-18T06:05:51.549Z,70.84
2022-09-18T06:08:18.144Z,70.57
2022-09-18T06:10:44.605Z,70.37
2022-09-18T06:13:15.471Z,70.49
2022-09-18T06:15:49.915Z,70.43
2022-09-18T06:18:21.019Z,70.02
2022-09-18T06:20:56.597Z,70.11
2022-09-18T06:23:27.054Z,70.24
2022-09-18T06:26:01.446Z,70.44
2022-09-18T06:28:30.830Z,69.65
2022-09-18T06:31:02.687Z,70.03
2022-09-18T06:33:36.643Z,70.12
2022-09-18T06:36:08.325Z,69.98
2022-09-18T06:38:42.963Z,69.80
2022-09-18T06:41:09.700Z,69.62
2022-09-18T06:43:50.226Z,69.50
2022-09-18T06:46:35.291Z,69.74
2022-09-18T06:49:15.293Z,69.69
2022-09-18T06:51:46.057Z,69.44
2022-09-18T06:54:16.390Z,69.22
2022-09-18T06:56:43.201Z,68.88
2022-09-18T06:59:12.301Z,68.93
2022-09-18T07:01:39.897Z,68.46
2022-09-18T07:04:20.671Z,68.27
2022-09-18T07:06:47.310Z,68.33
2022-09-18T07:09:14.796Z,67.84
2022-09-18T07:12:01.739Z,67.34
2022-09-18T07:14:48.453Z,68.01
2022-09-18T07:17:18.666Z,67.48
2022-09-18T07:19:48.008Z,67.14
2022-09-18T07:22:16.691Z,67.77
2022-09-18T07:24:46.750Z,67.17
2022-09-18T07:27:14.320Z,66.69
2022-09-18T07:29:42.206Z,66.89
2022-09-18T07:32:12.222Z,66.88
2022-09-18T07:34:38.684Z,66.61
2022-09-18T07:37:09.578Z,66.21
2022-09-18T07:39:37.369Z,66.47
2022-09-18T07:42:22.327Z,66.02
2022-09-18T07:44:51.809Z,65.89
2022-09-18T07:47:18.454Z,65.26
2022-09-18T07:49:45.062Z,65.57
2022-09-18T07:52:12.200Z,65.67
2022-09-18T07:54:44.777Z,65.52
2022-09-18T07:57:30.595Z,65.56
2022-09-18T08:00:17.540Z,65.73
2022-09-18T08:02:49.447Z,65.30
2022-09-18T08:05:36.228Z,65.36
2022-09-18T08:08:08.890Z,64.96
2022-09-18T08:10:55.937Z,64.52
2022-09-18T08:13:48.386Z,64.52
2022-09-18T08:16:34.856Z,64.60
2022-09-18T08:19:04.786Z,63.97
2022-09-18T08:21:43.816Z,64.37
2022-09-18T08:24:12.915Z,64.06
2022-09-18T08:26:40.189Z,63.54
2022-09-18T08:29:07.001Z,63.29
2022-09-18T08:31:35.577Z,62.91
2022-09-18T08:34:04.829Z,62.46
2022-09-18T08:36:31.471Z,61.98
2022-09-18T08:39:02.012Z,62.01
2022-09-18T08:41:56.928Z,61.77
2022-09-18T08:44:29.884Z,61.21
2022-09-18T08:47:09.987Z,61.33
2022-09-18T08:49:57.478Z,61.17
2022-09-18T08:52:28.926Z,60.79
2022-09-18T08:55:16.113Z,59.93
2022-09-18T08:58:19.445Z,60.07
2022-09-18T09:00:52.731Z,60.62
2022-09-18T09:03:49.876Z,59.85
2022-09-18T09:06:26.733Z,60.23
2022-09-18T09:09:02.446Z,59.88
2022-09-18T09:11:44.132Z,59.30
2022-09-18T09:14:57.594Z,59.76
2022-09-18T09:17:39.734Z,59.49
2022-09-18T09:20:13.114Z,59.03
2022-09-18T09:23:18.005Z,58.12
2022-09-18T09:26:03.004Z,58.69
2022-09-18T09:29:03.240Z,58.21
2022-09-18T09:32:21.068Z,57.57
2022-09-18T09:35:03.580Z,57.34
2022-09-18T09:37:42.453Z,57.47
2022-09-18T09:40:18.382Z,56.88
2022-09-18T09:42:55.900Z,56.10
2022-09-18T09:45:58.933Z,56.18
2022-09-18T09:49:05.211Z,55.78
2022-09-18T09:51:57.752Z,55.49
2022-09-18T09:54:24.735Z,55.22
2022-09-18T09:57:12.400Z,55.58
2022-09-18T09:59:57.833Z,54.63
2022-09-18T10:03:11.802Z,54.71
2022-09-18T10:05:52.983Z,54.35
2022-09-18T10:08:39.344Z,54.02
2022-09-18T10:11:11.179Z,54.18
2022-09-18T10:13:58.485Z,54.34
2022-09-18T10:16:31.321Z,54.20
2022-09-18T10:19:00.709Z,54.37
2022-09-18T10:21:34.405Z,54.24
2022-09-18T10:24:19.383Z,53.83
2022-09-18T10:26:57.165Z,53.45
2022-09-18T10:29:24.013Z,53.93
2022-09-18T10:31:57.358Z,53.87
2022-09-18T10:34:43.286Z,53.55
2022-09-18T10:37:17.110Z,53.63
2022-09-18T10:39:50.837Z,54.21
2022-09-18T10:42:21.408Z,54.08
2022-09-18T10:44:55.748Z,52.98
2022-09-18T10:47:30.869Z,52.79
2022-09-18T10:50:03.163Z,52.55
2022-09-18T10:52:36.103Z,52.42
2022-09-18T10:55:09.953Z,52.47
2022-09-18T10:58:15.289Z,52.06
2022-09-18T11:01:00.148Z,51.58
2022-09-18T11:03:35.104Z,51.54
2022-09-18T11:06:04.641Z,51.92
2022-09-18T11:08:35.254Z,52.18
2022-09-18T11:11:06.554Z,51.75
2022-09-18T11:13:49.685Z,51.66
2022-09-18T11:16:27.467Z,51.51
2022-09-18T11:19:07.174Z,51.89
2022-09-18T11:21:45.227Z,51.78
2022-09-18T11:24:27.402Z,51.74
2022-09-18T11:27:03.579Z,51.77
2022-09-18T11:29:33.730Z,51.78
2022-09-18T11:32:25.347Z,51.27
2022-09-18T11:35:02.536Z,51.64
2022-09-18T11:37:46.264Z,50.45
2022-09-18T11:40:30.189Z,50.63
2022-09-18T11:42:57.198Z,51.41
2022-09-18T11:45:51.281Z,50.62
2022-09-18T11:48:27.831Z,50.42
2022-09-18T11:51:01.983Z,50.36
2022-09-18T11:53:44.500Z,49.99
2022-09-18T11:56:16.520Z,49.83
2022-09-18T11:58:56.185Z,49.72
2022-09-18T12:01:48.729Z,49.46
2022-09-18T12:04:24.236Z,49.64
2022-09-18T12:06:58.026Z,48.91
2022-09-18T12:09:42.183Z,49.10
2022-09-18T12:12:28.234Z,48.82
2022-09-18T12:15:09.483Z,48.94
2022-09-18T12:17:43.353Z,49.32
2022-09-18T12:20:28.579Z,49.64
2022-09-18T12:22:58.507Z,49.54
2022-09-18T12:26:04.224Z,49.16
2022-09-18T12:29:13.169Z,49.09
2022-09-18T12:32:01.512Z,49.45
2022-09-18T12:34:51.246Z,49.25
2022-09-18T12:37:17.633Z,49.78
2022-09-18T12:39:53.830Z,49.05
2022-09-18T12:42:39.073Z,49.41
2022-09-18T12:45:30.545Z,49.46
2022-09-18T12:48:09.639Z,49.29
2022-09-18T12:50:57.578Z,49.31
2022-09-18T12:54:06.409Z,48.76
2022-09-18T12:56:52.508Z,48.63
2022-09-18T12:59:32.943Z,48.60
2022-09-18T13:02:22.090Z,47.91
2022-09-18T13:04:55.919Z,48.14
2022-09-18T13:07:28.529Z,48.05
2022-09-18T13:09:54.952Z,47.24
2022-09-18T13:12:30.552Z,46.77
2022-09-18T13:15:09.754Z,46.34
2022-09-18T13:17:47.829Z,46.59
2022-09-18T13:20:30.683Z,46.19
2022-09-18T13:22:59.120Z,46.09
2022-09-18T13:25:37.084Z,45.72
2022-09-18T13:28:07.645Z,46.07
2022-09-18T13:30:34.058Z,45.90
2022-09-18T13:33:02.477Z,45.37
2022-09-18T13:35:30.577Z,45.38
2022-09-18T13:38:08.971Z,45.31
2022-09-18T13:41:00.447Z,45.00
2022-09-18T13:43:34.821Z,44.62
2022-09-18T13:46:06.634Z,44.46
2022-09-18T13:48:39.771Z,44.51
2022-09-18T13:51:10.272Z,44.56
2022-09-18T13:53:37.871Z,44.52
2022-09-18T13:56:06.867Z,44.41
2022-09-18T13:58:36.253Z,44.52
2022-09-18T14:01:05.875Z,44.52
2022-09-18T14:03:36.347Z,44.70
2022-09-18T14:06:36.688Z,44.25
2022-09-18T14:09:24.311Z,44.16
2022-09-18T14:11:50.864Z,44.30
2022-09-18T14:14:22.733Z,43.53
2022-09-18T14:16:50.741Z,44.03
2022-09-18T14:19:32.187Z,43.55
2022-09-18T14:22:00.267Z,43.85
2022-09-18T14:24:51.071Z,44.03
2022-09-18T14:27:37.684Z,44.40
2022-09-18T14:30:14.172Z,44.07
2022-09-18T14:32:44.455Z,44.29
2022-09-18T14:35:33.632Z,43.22
2022-09-18T14:38:00.171Z,44.54
2022-09-18T14:40:29.840Z,44.41
2022-09-18T14:42:56.418Z,44.61
2022-09-18T14:45:29.919Z,44.62
2022-09-18T14:47:58.019Z,44.21
2022-09-18T14:50:32.265Z,44.50
2022-09-18T14:53:01.730Z,44.66
2022-09-18T14:55:32.475Z,45.01
2022-09-18T14:58:19.225Z,44.45
2022-09-18T15:00:50.942Z,44.75
2022-09-18T15:03:20.835Z,44.83
2022-09-18T15:05:51.039Z,44.92
2022-09-18T15:08:25.823Z,45.40
2022-09-18T15:10:56.600Z,45.31
2022-09-18T15:13:23.262Z,45.55
2022-09-18T15:15:59.593Z,45.42
2022-09-18T15:18:29.240Z,45.28
2022-09-18T15:20:59.198Z,45.79
2022-09-18T15:23:28.907Z,45.70
2022-09-18T15:25:59.544Z,45.83
2022-09-18T15:28:29.000Z,45.54
2022-09-18T15:31:00.044Z,45.97
2022-09-18T15:33:27.389Z,45.98
2022-09-18T15:35:55.809Z,46.30
2022-09-18T15:38:42.822Z,45.79
2022-09-18T15:41:21.147Z,46.00
2022-09-18T15:43:50.160Z,46.11
2022-09-18T15:46:30.380Z,46.16
2022-09-18T15:49:00.389Z,46.32
2022-09-18T15:51:29.686Z,46.48
2022-09-18T15:54:05.541Z,46.65
2022-09-18T15:56:36.448Z,46.96
2022-09-18T15:59:07.690Z,46.63
2022-09-18T16:01:37.058Z,46.48
2022-09-18T16:04:16.909Z,47.02
2022-09-18T16:06:51.981Z,46.72
2022-09-18T16:09:25.142Z,47.03
2022-09-18T16:11:52.264Z,46.79
2022-09-18T16:14:39.526Z,47.09
2022-09-18T16:17:36.969Z,47.59
2022-09-18T16:20:23.573Z,47.48
2022-09-18T16:22:51.920Z,47.56
2022-09-18T16:25:37.782Z,47.61
2022-09-18T16:28:20.212Z,47.60
2022-09-18T16:30:48.398Z,48.02
2022-09-18T16:33:35.151Z,48.19
2022-09-18T16:36:10.616Z,48.20
2022-09-18T16:38:37.047Z,48.03
2022-09-18T16:41:03.564Z,48.16
2022-09-18T16:43:30.099Z,48.38
2022-09-18T16:45:56.593Z,48.26
2022-09-18T16:48:24.143Z,48.58
2022-09-18T16:50:50.593Z,48.39
2022-09-18T16:53:17.545Z,48.81
2022-09-18T16:55:49.191Z,48.59
2022-09-18T16:58:19.030Z,48.65
2022-09-18T17:00:45.857Z,48.39
2022-09-18T17:03:12.696Z,48.41
2022-09-18T17:05:39.356Z,48.15
2022-09-18T17:08:05.907Z,48.11
2022-09-18T17:10:33.245Z,48.45
2022-09-18T17:13:00.241Z,47.94
2022-09-18T17:15:26.822Z,48.09
2022-09-18T17:17:53.619Z,48.04
2022-09-18T17:20:20.351Z,47.95
2022-09-18T17:22:47.675Z,48.01
2022-09-18T17:25:15.034Z,47.80
2022-09-18T17:27:43.892Z,47.65
2022-09-18T17:30:11.635Z,47.88
2022-09-18T17:32:38.401Z,47.46
2022-09-18T17:35:05.270Z,47.76
2022-09-18T17:37:32.122Z,47.35
2022-09-18T17:40:00.049Z,46.97
2022-09-18T17:42:26.643Z,46.77
2022-09-18T17:44:53.134Z,46.75
2022-09-18T17:47:20.369Z,47.10
2022-09-18T17:49:47.014Z,46.59
2022-09-18T17:52:14.090Z,47.08
2022-09-18T17:54:40.976Z,47.37
2022-09-18T17:57:11.581Z,47.08
2022-09-18T17:59:39.453Z,47.19
2022-09-18T18:02:07.734Z,47.21
2022-09-18T18:04:34.731Z,47.27
2022-09-18T18:07:01.994Z,47.63
2022-09-18T18:09:28.444Z,47.48
2022-09-18T18:11:55.175Z,47.47
2022-09-18T18:14:25.076Z,47.73
2022-09-18T18:16:52.697Z,47.67
2022-09-18T18:19:19.439Z,47.81
2022-09-18T18:21:46.065Z,47.96
2022-09-18T18:24:16.290Z,48.06
2022-09-18T18:26:44.014Z,48.11
2022-09-18T18:29:16.716Z,48.44
2022-09-18T18:31:43.807Z,48.12
2022-09-18T18:34:11.785Z,48.79
2022-09-18T18:36:40.415Z,49.21
2022-09-18T18:39:11.996Z,49.57
2022-09-18T18:41:39.563Z,49.60
2022-09-18T18:44:06.918Z,49.88
2022-09-18T18:46:36.671Z,50.08
2022-09-18T18:49:09.194Z,50.53
2022-09-18T18:51:47.465Z,50.73
2022-09-18T18:54:16.407Z,50.92
2022-09-18T18:56:43.487Z,50.67
2022-09-18T18:59:15.046Z,51.26
2022-09-18T19:01:43.184Z,51.26
2022-09-18T19:04:13.061Z,51.44
2022-09-18T19:06:41.858Z,51.50
2022-09-18T19:09:17.071Z,51.64
2022-09-18T19:11:49.379Z,51.48
2022-09-18T19:14:22.165Z,51.52
2022-09-18T19:16:49.464Z,51.68
2022-09-18T19:19:17.894Z,51.99
2022-09-18T19:21:44.732Z,51.83
2022-09-18T19:24:12.431Z,52.22
2022-09-18T19:26:40.543Z,51.99
2022-09-18T19:29:10.526Z,51.98
2022-09-18T19:31:39.956Z,52.21
2022-09-18T19:34:06.990Z,51.83
2022-09-18T19:36:34.192Z,51.87
2022-09-18T19:39:06.652Z,51.95
2022-09-18T19:42:00.542Z,51.91
2022-09-18T19:44:44.258Z,51.88
2022-09-18T19:47:20.471Z,51.94
2022-09-18T19:49:47.440Z,51.72
2022-09-18T19:52:18.002Z,51.90
2022-09-18T19:54:45.885Z,51.99
2022-09-18T19:57:12.937Z,51.83
2022-09-18T19:59:39.426Z,51.97
2022-09-18T20:02:05.948Z,51.94
2022-09-18T20:04:32.521Z,52.05
2022-09-18T20:06:59.002Z,51.77
2022-09-18T20:09:28.918Z,52.12
2022-09-18T20:11:55.456Z,52.06
2022-09-18T20:14:22.303Z,52.53
2022-09-18T20:16:48.985Z,52.12
2022-09-18T20:19:15.484Z,52.21
2022-09-18T20:21:42.012Z,52.03
2022-09-18T20:24:08.523Z,52.18
2022-09-18T20:26:34.945Z,52.34
2022-09-18T20:29:01.516Z,52.09
2022-09-18T20:31:28.056Z,52.47
2022-09-18T20:33:58.993Z,52.64
2022-09-18T20:36:26.602Z,52.92
2022-09-18T20:38:57.698Z,53.83
2022-09-18T20:41:26.874Z,54.18
2022-09-18T20:43:53.726Z,54.39
2022-09-18T20:46:20.911Z,54.94
2022-09-18T20:48:55.388Z,55.62
2022-09-18T20:51:27.475Z,55.72
2022-09-18T20:53:57.195Z,56.70
2022-09-18T20:56:31.772Z,57.09
2022-09-18T20:58:58.955Z,57.69
2022-09-18T21:01:27.755Z,58.03
2022-09-18T21:04:00.548Z,58.30
2022-09-18T21:06:33.363Z,59.06
2022-09-18T21:09:04.436Z,59.74
2022-09-18T21:11:34.953Z,60.05
2022-09-18T21:14:03.276Z,60.29
2022-09-18T21:16:33.924Z,60.70
2022-09-18T21:19:01.972Z,60.79
2022-09-18T21:21:30.930Z,61.29
2022-09-18T21:24:01.076Z,61.70
2022-09-18T21:26:30.545Z,62.15
2022-09-18T21:28:57.173Z,61.51
2022-09-18T21:31:24.595Z,61.84
2022-09-18T21:33:52.970Z,61.66
2022-09-18T21:36:21.752Z,61.60
2022-09-18T21:38:50.774Z,62.19
2022-09-18T21:41:19.619Z,61.73
2022-09-18T21:43:50.371Z,61.84
2022-09-18T21:46:19.621Z,62.51
2022-09-18T21:48:48.289Z,62.72
2022-09-18T21:51:16.517Z,62.90
2022-09-18T21:53:43.928Z,62.70
2022-09-18T21:56:17.473Z,62.79
2022-09-18T21:58:45.084Z,63.34
2022-09-18T22:01:20.666Z,63.19
2022-09-18T22:03:59.019Z,63.04
2022-09-18T22:06:28.201Z,63.49
2022-09-18T22:08:57.266Z,63.78
2022-09-18T22:11:29.944Z,63.60
2022-09-18T22:13:58.947Z,64.14
2022-09-18T22:16:28.033Z,64.46
2022-09-18T22:18:54.863Z,64.11
2022-09-18T22:21:27.544Z,63.74
2022-09-18T22:23:59.594Z,64.24
2022-09-18T22:26:27.570Z,64.51
2022-09-18T22:28:56.490Z,64.25
2022-09-18T22:31:24.518Z,64.76
2022-09-18T22:33:57.622Z,64.61
2022-09-18T22:36:25.297Z,64.90
2022-09-18T22:38:53.230Z,64.70
2022-09-18T22:41:20.623Z,64.76
2022-09-18T22:43:47.371Z,65.00
2022-09-18T22:46:16.743Z,65.44
2022-09-18T22:48:44.047Z,65.62
2022-09-18T22:51:13.291Z,66.02
2022-09-18T22:53:45.749Z,66.24
2022-09-18T22:56:13.635Z,66.18
2022-09-18T22:58:41.315Z,66.23
2022-09-18T23:01:12.334Z,66.49
2022-09-18T23:03:39.969Z,66.82
2022-09-18T23:06:08.140Z,66.80
2022-09-18T23:08:35.755Z,67.13
2022-09-18T23:11:17.410Z,67.13
2022-09-18T23:13:49.847Z,67.37
2022-09-18T23:16:16.483Z,67.49
2022-09-18T23:18:51.804Z,67.30
2022-09-18T23:21:18.967Z,67.30
2022-09-18T23:23:49.348Z,67.56
2022-09-18T23:26:19.508Z,67.58
2022-09-18T23:28:47.479Z,67.79
2022-09-18T23:31:17.050Z,67.63
2022-09-18T23:33:48.562Z,67.72
2022-09-18T23:36:21.664Z,67.91
2022-09-18T23:38:52.773Z,68.27
2022-09-18T23:41:19.290Z,68.19
2022-09-18T23:43:48.071Z,68.22
2022-09-18T23:46:15.505Z,68.14
2022-09-18T23:48:42.503Z,68.44
2022-09-18T23:51:11.961Z,68.30
2022-09-18T23:53:40.052Z,68.64
2022-09-18T23:56:09.483Z,68.46
2022-09-18T23:58:36.394Z,68.82
